Time;durP1;ratioP1;P1;durP2;ratioP2;P2;SDS_P1;SDS_P2;PMS_P1;PMS_P2;Temp;Humidity;BMP_temperature;BMP_pressure;BME280_temperature;BME280_humidity;BME280_pressure;Samples;Min_cycle;Max_cycle;Signal;HPM_P1;HPM_P2
2021/06/12 00:00:52;;;;;;;33.35;16.00;;;;;;;14.50;77.74;99112.07;130191;1089;23223;-64
2021/06/12 00:03:20;;;;;;;30.65;15.50;;;;;;;14.49;77.68;99113.17;130469;1089;22570;-64
2021/06/12 00:05:49;;;;;;;24.65;14.70;;;;;;;14.47;77.78;99109.09;130490;1089;23157;-64
2021/06/12 00:08:18;;;;;;;32.55;14.83;;;;;;;14.47;77.85;99109.09;130526;1088;22571;-64
2021/06/12 00:11:01;;;;;;;34.65;14.58;;;;;;;14.45;77.53;99101.16;130460;1090;23436;-63
2021/06/12 00:13:30;;;;;;;26.80;14.23;;;;;;;14.42;77.54;99101.77;130231;1090;22584;-64
2021/06/12 00:15:58;;;;;;;30.00;12.55;;;;;;;14.39;77.71;99094.09;130163;1090;22553;-63
2021/06/12 00:18:27;;;;;;;31.53;13.88;;;;;;;14.37;77.82;99099.05;130493;1090;22613;-63
2021/06/12 00:20:57;;;;;;;33.58;14.45;;;;;;;14.37;77.83;99095.49;130453;1089;22689;-63
2021/06/12 00:23:26;;;;;;;29.00;14.80;;;;;;;14.36;77.97;99091.94;130448;1090;22634;-63
2021/06/12 00:25:54;;;;;;;41.45;15.55;;;;;;;14.35;77.51;99097.70;130499;1089;22603;-63
2021/06/12 00:28:22;;;;;;;31.28;15.15;;;;;;;14.31;78.13;99094.73;130495;1089;22548;-63
2021/06/12 00:30:51;;;;;;;33.90;14.65;;;;;;;14.31;77.87;99081.02;130229;1090;23078;-63
2021/06/12 00:33:19;;;;;;;37.25;13.73;;;;;;;14.29;78.02;99087.91;130472;1088;22596;-63
2021/06/12 00:35:47;;;;;;;27.95;13.95;;;;;;;14.27;77.84;99087.41;130441;1089;22551;-63
2021/06/12 00:38:16;;;;;;;30.38;16.18;;;;;;;14.25;77.81;99084.14;130395;1089;22553;-63
2021/06/12 00:40:44;;;;;;;26.25;13.08;;;;;;;14.22;77.56;99081.98;130467;1090;22621;-63
2021/06/12 00:43:12;;;;;;;42.25;15.78;;;;;;;14.18;77.67;99095.44;130185;1090;22573;-64
2021/06/12 00:45:46;;;;;;;34.03;14.75;;;;;;;14.15;77.98;99087.80;130484;1089;22557;-64
2021/06/12 00:48:14;;;;;;;31.48;16.50;;;;;;;14.13;77.69;99090.04;130443;1090;22566;-64
2021/06/12 00:50:43;;;;;;;31.43;15.38;;;;;;;14.11;77.81;99084.84;130547;1090;22677;-63
2021/06/12 00:53:18;;;;;;;33.53;15.15;;;;;;;14.10;77.60;99093.35;130469;1090;22635;-63
2021/06/12 00:55:47;;;;;;;38.28;17.08;;;;;;;14.09;77.81;99086.24;130201;1089;22727;-63
2021/06/12 00:58:15;;;;;;;47.98;18.40;;;;;;;14.07;77.50;99086.53;130175;1089;22976;-64
2021/06/12 01:00:43;;;;;;;35.18;17.38;;;;;;;14.05;77.90;99093.40;130138;1090;22635;-62
2021/06/12 01:03:12;;;;;;;42.10;17.60;;;;;;;14.01;77.65;99095.08;130462;1089;23120;-62
2021/06/12 01:05:40;;;;;;;46.43;17.90;;;;;;;13.98;77.87;99101.16;130150;1090;22545;-62
2021/06/12 01:08:08;;;;;;;44.93;17.13;;;;;;;13.96;77.97;99098.71;130418;1090;22673;-62
2021/06/12 01:10:41;;;;;;;40.85;17.78;;;;;;;13.92;78.13;99097.65;130433;1089;22578;-62
2021/06/12 01:13:39;;;;;;;45.83;19.03;;;;;;;13.88;77.97;99102.06;130473;1089;23124;-62
2021/06/12 01:16:16;;;;;;;38.30;18.28;;;;;;;13.84;78.06;99098.30;130159;1090;22556;-67
2021/06/12 01:18:45;;;;;;;47.93;17.78;;;;;;;13.84;78.20;99100.22;130181;1089;22548;-67
2021/06/12 01:21:24;;;;;;;42.00;18.05;;;;;;;13.82;78.42;99094.21;130195;1090;22741;-67
2021/06/12 01:24:02;;;;;;;48.23;17.08;;;;;;;13.84;78.06;99094.73;130163;1089;22553;-67
2021/06/12 01:26:42;;;;;;;32.18;15.25;;;;;;;13.80;78.53;99095.31;130398;1090;22542;-67
2021/06/12 01:29:36;;;;;;;40.58;14.08;;;;;;;13.77;78.56;99090.41;130176;1090;23341;-67
2021/06/12 01:32:04;;;;;;;34.28;15.90;;;;;;;13.75;78.46;99095.35;130495;1089;23329;-67
2021/06/12 01:34:33;;;;;;;27.55;13.30;;;;;;;13.73;78.64;99094.82;130452;1090;22636;-67
2021/06/12 01:37:02;;;;;;;39.40;14.50;;;;;;;13.73;78.57;99092.08;130197;1090;22542;-67
2021/06/12 01:39:30;;;;;;;29.65;14.53;;;;;;;13.73;78.63;99096.74;130455;1089;22628;-68
2021/06/12 01:42:00;;;;;;;36.05;14.48;;;;;;;13.74;78.92;99101.11;130516;1090;23040;-66
2021/06/12 01:44:29;;;;;;;38.63;14.95;;;;;;;13.75;78.67;99098.09;130159;1090;22686;-66
2021/06/12 01:46:58;;;;;;;33.23;13.85;;;;;;;13.75;78.78;99103.56;130260;1089;22659;-62
2021/06/12 01:49:30;;;;;;;29.43;14.70;;;;;;;13.74;79.07;99101.11;130155;1089;22550;-62
2021/06/12 01:51:58;;;;;;;32.30;14.03;;;;;;;13.73;78.91;99103.03;130215;1090;22560;-62
2021/06/12 01:54:27;;;;;;;31.95;13.13;;;;;;;13.77;78.85;99097.81;130168;1090;22555;-62
2021/06/12 01:56:55;;;;;;;37.20;13.80;;;;;;;13.78;78.71;99100.26;130083;1093;22715;-61
2021/06/12 01:59:24;;;;;;;29.95;14.40;;;;;;;13.78;78.65;99100.26;130117;1090;22555;-61
2021/06/12 02:01:53;;;;;;;21.13;12.80;;;;;;;13.79;78.44;99095.59;130045;1090;23059;-62
2021/06/12 02:04:21;;;;;;;27.43;12.63;;;;;;;13.78;78.58;99097.52;130103;1090;22596;-62
2021/06/12 02:06:52;;;;;;;29.05;12.80;;;;;;;13.78;78.71;99094.78;130057;1090;22576;-61
2021/06/12 02:09:21;;;;;;;31.78;12.38;;;;;;;13.80;78.94;99106.27;130093;1090;22574;-64
2021/06/12 02:11:49;;;;;;;33.83;13.40;;;;;;;13.83;78.88;99098.58;130053;1090;22732;-63
2021/06/12 02:14:17;;;;;;;27.93;12.28;;;;;;;13.84;79.24;99103.77;130111;1088;22659;-63
2021/06/12 02:16:47;;;;;;;24.98;11.95;;;;;;;13.85;79.17;99097.16;126923;1090;22786;-62
2021/06/12 02:19:16;;;;;;;27.00;12.55;;;;;;;13.88;79.02;99103.98;125393;1090;22882;-63
2021/06/12 02:21:44;;;;;;;20.40;12.55;;;;;;;13.87;79.10;99100.43;125444;1090;25564;-62
2021/06/12 02:24:13;;;;;;;25.23;12.90;;;;;;;13.88;78.90;99103.98;130047;1090;23987;-63
2021/06/12 02:26:42;;;;;;;25.68;13.33;;;;;;;13.88;79.38;99107.55;130087;1093;22562;-63
2021/06/12 02:29:12;;;;;;;21.90;11.68;;;;;;;13.91;79.67;99106.16;130150;1090;22562;-63
2021/06/12 02:31:43;;;;;;;26.90;12.50;;;;;;;13.92;79.50;99108.61;130154;1089;22556;-63
2021/06/12 02:34:11;;;;;;;30.00;13.05;;;;;;;13.94;80.19;99111.88;130109;1090;22648;-63
2021/06/12 02:36:40;;;;;;;26.60;11.98;;;;;;;14.01;80.49;99117.81;130446;1090;22583;-63
2021/06/12 02:39:09;;;;;;;26.10;12.68;;;;;;;14.05;80.54;99107.09;130468;1090;23287;-63
2021/06/12 02:41:37;;;;;;;22.25;11.75;;;;;;;14.12;80.70;99124.84;130414;1089;23027;-62
2021/06/12 02:44:06;;;;;;;21.38;13.60;;;;;;;14.19;80.79;99123.66;130540;1090;22498;-63
2021/06/12 02:46:36;;;;;;;25.25;13.15;;;;;;;14.28;81.07;99132.89;127784;1089;25744;-62
2021/06/12 02:49:06;;;;;;;25.75;15.85;;;;;;;14.38;81.26;99125.35;130192;1088;23026;-63
2021/06/12 02:51:37;;;;;;;23.93;14.73;;;;;;;14.46;81.13;99123.91;130174;1090;22635;-63
2021/06/12 02:54:05;;;;;;;24.68;14.35;;;;;;;14.56;81.44;99122.98;130512;1089;22520;-64
2021/06/12 02:56:34;;;;;;;24.58;14.90;;;;;;;14.64;80.99;99122.31;130195;1090;22533;-65
2021/06/12 02:59:04;;;;;;;30.10;14.93;;;;;;;14.71;81.66;99128.27;130149;1090;22544;-64
2021/06/12 03:01:32;;;;;;;31.73;12.83;;;;;;;14.79;81.40;99124.86;130169;1089;22735;-65
2021/06/12 03:04:01;;;;;;;25.57;12.93;;;;;;;14.89;81.66;99132.94;130467;1089;22937;-64
2021/06/12 03:06:29;;;;;;;25.30;14.15;;;;;;;14.98;81.80;99119.39;130225;1090;23087;-65
2021/06/12 03:08:58;;;;;;;25.63;14.13;;;;;;;15.07;81.71;99123.90;130177;1089;22541;-64
2021/06/12 03:11:27;;;;;;;24.30;14.23;;;;;;;15.16;81.85;99122.10;130194;1090;22551;-65
2021/06/12 03:13:56;;;;;;;22.18;13.88;;;;;;;15.27;81.56;99127.45;130206;1090;22544;-65
2021/06/12 03:16:24;;;;;;;27.13;14.20;;;;;;;15.35;81.27;99118.53;130175;1090;22639;-65
2021/06/12 03:18:53;;;;;;;22.58;14.33;;;;;;;15.47;80.83;99121.63;130147;1090;22616;-65
2021/06/12 03:21:23;;;;;;;20.45;13.90;;;;;;;15.57;80.65;99128.92;130200;1089;22558;-65
2021/06/12 03:23:52;;;;;;;22.68;13.73;;;;;;;15.66;80.58;99127.11;130148;1090;22587;-64
2021/06/12 03:26:21;;;;;;;16.95;12.73;;;;;;;15.77;80.54;99131.30;130173;1090;22549;-64
2021/06/12 03:28:49;;;;;;;19.55;13.63;;;;;;;15.89;80.23;99128.89;130150;1090;22655;-65
2021/06/12 03:31:19;;;;;;;27.00;13.95;;;;;;;15.99;80.13;99130.66;130207;1090;23321;-65
2021/06/12 03:33:48;;;;;;;23.15;12.55;;;;;;;16.10;79.92;99135.66;130135;1090;22667;-65
2021/06/12 03:36:17;;;;;;;19.35;13.43;;;;;;;16.20;79.70;99135.45;130168;1090;23048;-65
2021/06/12 03:38:46;;;;;;;29.28;13.53;;;;;;;16.31;79.33;99136.06;130179;1090;22636;-64
2021/06/12 03:41:14;;;;;;;25.70;13.98;;;;;;;16.41;78.96;99143.31;130446;1089;22674;-64
2021/06/12 03:43:43;;;;;;;31.30;15.05;;;;;;;16.51;78.57;99137.59;130120;1089;22559;-64
2021/06/12 03:46:15;;;;;;;23.60;12.45;;;;;;;16.59;78.28;99137.68;130187;1089;22557;-65
2021/06/12 03:49:03;;;;;;;29.50;13.58;;;;;;;16.71;78.24;99133.65;130439;1090;22595;-64
2021/06/12 03:51:32;;;;;;;26.38;13.10;;;;;;;16.80;77.76;99132.61;130477;1089;22967;-65
2021/06/12 03:54:01;;;;;;;23.78;12.93;;;;;;;16.91;77.60;99133.19;130144;1090;22571;-64
2021/06/12 03:56:33;;;;;;;20.83;11.45;;;;;;;17.01;77.45;99140.42;127612;1090;22822;-64
2021/06/12 03:59:01;;;;;;;23.48;12.40;;;;;;;17.09;77.16;99142.43;130435;1089;23189;-63
2021/06/12 04:01:30;;;;;;;14.83;11.93;;;;;;;17.18;77.08;99141.38;130434;1089;23354;-63
2021/06/12 04:03:58;;;;;;;24.43;12.93;;;;;;;17.25;76.92;99144.52;130188;1090;22566;-64
2021/06/12 04:06:26;;;;;;;18.88;12.58;;;;;;;17.32;76.74;99139.38;130485;1090;22554;-64
2021/06/12 04:08:56;;;;;;;17.93;12.93;;;;;;;17.40;76.80;99140.59;130492;1090;22537;-64
2021/06/12 04:11:24;;;;;;;34.20;15.60;;;;;;;17.51;76.77;99152.17;130429;1088;22529;-64
2021/06/12 04:13:52;;;;;;;30.30;15.03;;;;;;;17.58;76.58;99142.36;130166;1090;22702;-64
2021/06/12 04:16:20;;;;;;;18.03;14.13;;;;;;;17.67;76.64;99150.71;130144;1090;22635;-64
2021/06/12 04:18:49;;;;;;;21.23;12.63;;;;;;;17.74;76.50;99148.34;130462;1090;23334;-64
2021/06/12 04:21:17;;;;;;;26.55;13.85;;;;;;;17.84;76.51;99155.52;130409;1090;22537;-64
2021/06/12 04:23:46;;;;;;;23.83;12.38;;;;;;;17.93;76.42;99151.68;130494;1090;23331;-63
2021/06/12 04:26:15;;;;;;;8.93;7.40;;;;;;;18.01;75.92;99161.15;130138;1090;22548;-64
2021/06/12 04:28:44;;;;;;;9.45;6.68;;;;;;;18.07;75.58;99150.78;130492;1089;23125;-64
2021/06/12 04:31:13;;;;;;;7.30;5.63;;;;;;;18.13;75.11;99155.05;130471;1089;23624;-63
2021/06/12 04:33:42;;;;;;;9.30;6.58;;;;;;;18.18;74.81;99157.67;130448;1089;22989;-64
2021/06/12 04:36:10;;;;;;;8.08;6.00;;;;;;;18.25;74.72;99160.78;130141;1090;22626;-63
2021/06/12 04:38:39;;;;;;;7.63;6.30;;;;;;;18.29;73.67;99162.59;130489;1090;23080;-64
2021/06/12 04:41:07;;;;;;;7.15;6.03;;;;;;;18.31;73.70;99171.37;130196;1090;22658;-61
2021/06/12 04:43:35;;;;;;;8.50;6.10;;;;;;;18.33;73.71;99160.80;130220;1090;22588;-63
2021/06/12 04:46:04;;;;;;;10.00;7.08;;;;;;;18.37;73.28;99159.05;130473;1090;22509;-62
2021/06/12 04:48:32;;;;;;;6.28;5.45;;;;;;;18.43;73.61;99161.67;130499;1089;23087;-62
2021/06/12 04:51:00;;;;;;;4.93;3.50;;;;;;;18.50;71.79;99159.25;130491;1089;22535;-63
2021/06/12 04:53:30;;;;;;;5.85;3.68;;;;;;;18.56;71.36;99158.80;130493;1089;23137;-63
2021/06/12 04:56:01;;;;;;;5.83;3.75;;;;;;;18.63;71.02;99155.59;128858;1089;22781;-60
2021/06/12 04:58:30;;;;;;;5.03;4.13;;;;;;;18.70;71.25;99154.01;130143;1090;23469;-62
2021/06/12 05:01:02;;;;;;;6.13;4.00;;;;;;;18.80;71.07;99143.79;130484;1089;22564;-62
2021/06/12 05:03:30;;;;;;;5.73;4.85;;;;;;;18.88;70.29;99152.11;130368;1090;22727;-63
2021/06/12 05:05:59;;;;;;;5.15;4.60;;;;;;;18.97;70.07;99147.41;130123;1089;22575;-63
2021/06/12 05:08:27;;;;;;;5.90;4.45;;;;;;;19.09;69.62;99152.28;130391;1089;22562;-63
2021/06/12 05:11:01;;;;;;;5.23;4.63;;;;;;;19.25;69.38;99141.58;130456;1090;22568;-62
2021/06/12 05:13:32;;;;;;;6.10;5.10;;;;;;;19.40;68.95;99150.20;130433;1090;23560;-63
2021/06/12 05:16:01;;;;;;;6.25;3.98;;;;;;;19.59;67.92;99154.63;130468;1090;22547;-62
2021/06/12 05:18:44;;;;;;;6.48;3.43;;;;;;;19.71;67.02;99146.47;130438;1088;23382;-62
2021/06/12 05:21:12;;;;;;;3.40;3.05;;;;;;;19.86;65.94;99145.14;130478;1090;22558;-62
2021/06/12 05:23:41;;;;;;;3.65;3.15;;;;;;;20.00;64.95;99143.81;130388;1089;22569;-63
2021/06/12 05:26:11;;;;;;;3.00;2.78;;;;;;;20.16;64.16;99146.86;130394;1090;23149;-63
2021/06/12 05:28:40;;;;;;;4.65;3.50;;;;;;;20.29;62.93;99137.53;130173;1089;23557;-63
2021/06/12 05:31:08;;;;;;;4.40;3.60;;;;;;;20.37;63.19;99145.00;130436;1090;23433;-63
2021/06/12 05:33:36;;;;;;;4.30;2.73;;;;;;;20.48;62.55;99142.70;130418;1089;23048;-63
2021/06/12 05:36:05;;;;;;;3.88;3.28;;;;;;;20.58;61.94;99141.51;130433;1090;22529;-63
2021/06/12 05:38:33;;;;;;;4.05;3.10;;;;;;;20.70;61.74;99141.60;130445;1090;23402;-63
2021/06/12 05:41:01;;;;;;;3.43;3.13;;;;;;;20.83;61.55;99144.13;130389;1088;22581;-63
2021/06/12 05:43:31;;;;;;;3.50;2.93;;;;;;;20.94;60.40;99141.77;130169;1090;22998;-63
2021/06/12 05:45:59;;;;;;;3.15;2.68;;;;;;;20.96;59.46;99139.48;130540;1089;22521;-63
2021/06/12 05:48:28;;;;;;;45.40;23.78;;;;;;;20.90;59.65;99143.61;130478;1089;23389;-63
2021/06/12 05:50:56;;;;;;;6.25;4.20;;;;;;;20.90;60.02;99140.03;130519;1090;22483;-63
2021/06/12 05:53:25;;;;;;;4.47;3.73;;;;;;;20.90;60.45;99137.27;130525;1087;23033;-63
2021/06/12 05:55:54;;;;;;;17.10;9.30;;;;;;;20.91;60.57;99147.20;130495;1089;22873;-63
2021/06/12 05:58:22;;;;;;;8.23;4.38;;;;;;;20.89;60.08;99138.41;130531;1090;23330;-63
2021/06/12 06:00:50;;;;;;;6.13;3.40;;;;;;;20.85;60.55;99135.48;130490;1089;22678;-64
2021/06/12 06:03:19;;;;;;;11.90;5.70;;;;;;;20.84;60.20;99139.41;130509;1090;23556;-63
2021/06/12 06:05:48;;;;;;;8.58;4.15;;;;;;;20.82;60.23;99139.73;129175;1090;22772;-65
2021/06/12 06:08:17;;;;;;;4.58;3.13;;;;;;;20.82;59.60;99131.42;130511;1089;22568;-65
2021/06/12 06:10:45;;;;;;;12.23;5.88;;;;;;;20.83;59.99;99146.89;130490;1087;22570;-64
2021/06/12 06:13:14;;;;;;;4.98;3.55;;;;;;;20.86;58.54;99144.61;130493;1088;22549;-67
2021/06/12 06:15:49;;;;;;;63.78;37.80;;;;;;;20.83;58.77;99132.23;130459;1089;22654;-62
2021/06/12 06:18:18;;;;;;;9.83;7.28;;;;;;;20.82;58.73;99142.50;130517;1087;22559;-62
2021/06/12 06:20:46;;;;;;;5.83;4.05;;;;;;;20.83;59.39;99135.82;130504;1089;23097;-62
2021/06/12 06:23:15;;;;;;;4.15;3.58;;;;;;;20.85;59.72;99137.45;130532;1090;22656;-65
2021/06/12 06:25:43;;;;;;;7.98;5.08;;;;;;;20.88;59.43;99136.78;130478;1089;22544;-64
2021/06/12 06:28:11;;;;;;;6.35;3.90;;;;;;;20.91;59.54;99141.66;130532;1089;23438;-63
2021/06/12 06:30:39;;;;;;;6.25;4.08;;;;;;;20.94;59.28;99141.77;130468;1089;22558;-62
2021/06/12 06:33:08;;;;;;;5.55;4.10;;;;;;;20.96;59.46;99131.17;130475;1089;22529;-63
2021/06/12 06:35:37;;;;;;;6.03;3.73;;;;;;;20.98;59.24;99139.16;130426;1090;23002;-63
2021/06/12 06:38:05;;;;;;;4.18;3.48;;;;;;;20.99;59.92;99140.78;130497;1089;22555;-63
2021/06/12 06:40:33;;;;;;;4.15;3.53;;;;;;;21.03;60.39;99136.20;130499;1087;22545;-63
2021/06/12 06:43:02;;;;;;;5.50;4.23;;;;;;;21.08;60.22;99141.52;130387;1090;22649;-63
2021/06/12 06:45:31;;;;;;;8.70;3.75;;;;;;;21.14;60.27;99137.41;130495;1087;22554;-63
2021/06/12 06:47:59;;;;;;;6.23;4.13;;;;;;;21.17;58.63;99139.52;130512;1087;22512;-64
2021/06/12 06:50:28;;;;;;;6.18;3.93;;;;;;;21.08;58.28;99139.56;130491;1090;22538;-64
2021/06/12 06:52:59;;;;;;;5.00;4.50;;;;;;;20.98;58.38;99136.38;130480;1087;22664;-65
2021/06/12 06:56:49;;;;;;;5.08;4.25;;;;;;;20.89;59.20;99150.30;125568;1092;26026;-59
2021/06/12 06:59:18;;;;;;;4.30;3.78;;;;;;;20.90;58.81;99138.08;125360;1092;22806;-59
2021/06/12 07:01:46;;;;;;;6.10;4.35;;;;;;;20.95;58.63;99139.81;129894;1093;22603;-63
2021/06/12 07:04:14;;;;;;;8.95;5.08;;;;;;;20.99;58.74;99138.81;130104;1093;22587;-65
2021/06/12 07:06:43;;;;;;;7.65;3.83;;;;;;;21.06;59.25;99138.30;130065;1093;22696;-64
2021/06/12 07:09:11;;;;;;;5.43;4.20;;;;;;;21.11;58.72;99138.08;130114;1093;22560;-63
2021/06/12 07:11:39;;;;;;;6.53;4.55;;;;;;;21.16;58.76;99152.55;130122;1093;22604;-63
2021/06/12 07:14:08;;;;;;;7.38;4.08;;;;;;;21.23;58.31;99140.95;130103;1093;22637;-63
2021/06/12 07:16:37;;;;;;;7.65;3.80;;;;;;;21.28;57.95;99131.63;130107;1092;22705;-63
2021/06/12 07:19:05;;;;;;;6.45;3.90;;;;;;;21.30;57.20;99138.46;130111;1093;22574;-64
2021/06/12 07:21:34;;;;;;;6.60;4.10;;;;;;;21.29;57.86;99134.06;130142;1093;22657;-64
2021/06/12 07:24:02;;;;;;;6.15;4.40;;;;;;;21.30;58.71;99141.23;130015;1093;22533;-63
2021/06/12 07:26:31;;;;;;;6.73;4.73;;;;;;;21.33;58.51;99136.98;130076;1093;23071;-64
2021/06/12 07:28:59;;;;;;;5.05;3.95;;;;;;;21.37;58.60;99141.48;130033;1093;22573;-64
2021/06/12 07:31:40;;;;;;;8.75;4.45;;;;;;;21.40;58.71;99126.95;130094;1093;23355;-63
2021/06/12 07:34:09;;;;;;;5.00;3.45;;;;;;;21.44;57.93;99130.68;130079;1093;22627;-64
2021/06/12 07:36:38;;;;;;;6.48;4.40;;;;;;;21.49;57.96;99132.45;130094;1093;22595;-65
2021/06/12 07:39:15;;;;;;;8.43;4.13;;;;;;;21.50;57.08;99136.81;130008;1093;22584;-64
2021/06/12 07:41:44;;;;;;;4.10;3.70;;;;;;;21.48;57.27;99137.17;129870;1092;22636;-64
2021/06/12 07:44:12;;;;;;;6.85;3.78;;;;;;;21.46;58.03;99133.12;130064;1092;22602;-63
2021/06/12 07:46:41;;;;;;;4.75;4.15;;;;;;;21.44;56.63;99130.68;130030;1092;23202;-64
2021/06/12 07:49:11;;;;;;;6.63;4.05;;;;;;;21.43;56.91;99140.14;130113;1092;22669;-64
2021/06/12 07:51:40;;;;;;;4.58;3.63;;;;;;;21.44;56.58;99127.09;129834;1092;22598;-64
2021/06/12 07:54:09;;;;;;;4.73;4.18;;;;;;;21.46;56.51;99133.93;130063;1093;23297;-63
2021/06/12 07:56:37;;;;;;;5.25;3.50;;;;;;;21.51;56.36;99135.66;130088;1093;22595;-64
2021/06/12 07:59:06;;;;;;;6.13;4.48;;;;;;;21.57;55.93;99141.82;130020;1093;22582;-64
2021/06/12 08:01:38;;;;;;;4.70;3.70;;;;;;;21.60;55.70;99132.83;129971;1093;22579;-64
2021/06/12 08:04:06;;;;;;;5.43;3.93;;;;;;;21.63;55.47;99127.42;129847;1093;22611;-64
2021/06/12 08:06:35;;;;;;;5.80;3.48;;;;;;;21.68;55.29;99141.05;130033;1093;22705;-63
2021/06/12 08:09:04;;;;;;;8.97;3.37;;;;;;;21.71;55.59;99134.02;129826;1093;23815;-63
2021/06/12 08:11:33;;;;;;;6.05;3.55;;;;;;;21.74;55.99;99133.34;129865;1093;22994;-65
2021/06/12 08:14:02;;;;;;;4.18;3.78;;;;;;;21.78;56.15;99135.10;129866;1093;22552;-64
2021/06/12 08:16:30;;;;;;;7.05;3.88;;;;;;;21.82;55.67;99127.70;130104;1093;22569;-63
2021/06/12 08:18:58;;;;;;;4.13;3.50;;;;;;;21.88;55.54;99131.08;129851;1092;22519;-63
2021/06/12 08:21:27;;;;;;;5.95;3.83;;;;;;;21.92;55.52;99132.02;130042;1093;22626;-63
2021/06/12 08:23:56;;;;;;;8.15;3.73;;;;;;;21.96;55.49;99134.90;129809;1092;23561;-63
2021/06/12 08:26:24;;;;;;;4.03;3.50;;;;;;;22.02;54.37;99134.39;129830;1093;23058;-64
2021/06/12 08:28:54;;;;;;;6.40;4.28;;;;;;;22.06;54.57;99135.33;130021;1093;22615;-64
2021/06/12 08:31:23;;;;;;;6.53;4.30;;;;;;;22.08;54.64;99132.99;130071;1093;23309;-63
2021/06/12 08:33:51;;;;;;;10.58;4.90;;;;;;;22.11;53.94;99126.77;130083;1092;22534;-64
2021/06/12 08:36:29;;;;;;;15.10;7.85;;;;;;;22.09;53.92;99133.80;130075;1093;22645;-64
2021/06/12 08:38:58;;;;;;;7.05;3.63;;;;;;;22.02;53.45;99134.39;130080;1093;22664;-64
2021/06/12 08:41:26;;;;;;;26.75;13.70;;;;;;;21.97;53.85;99131.78;125587;1093;22769;-63
2021/06/12 08:43:59;;;;;;;27.13;15.25;;;;;;;21.95;53.52;99128.54;125082;1093;22832;-63
2021/06/12 08:46:28;;;;;;;8.23;4.30;;;;;;;21.95;53.18;99124.95;129848;1092;22576;-64
2021/06/12 08:48:57;;;;;;;6.20;4.33;;;;;;;21.93;53.62;99124.52;130061;1093;23133;-64
2021/06/12 08:51:25;;;;;;;6.23;3.73;;;;;;;21.93;55.09;99122.52;129833;1093;22586;-64
2021/06/12 08:53:53;;;;;;;60.28;29.05;;;;;;;21.98;55.03;99130.64;130066;1093;22699;-64
2021/06/12 08:56:22;;;;;;;8.65;4.70;;;;;;;22.06;53.41;99128.97;129815;1092;22596;-64
2021/06/12 08:58:50;;;;;;;6.48;4.18;;;;;;;22.10;52.88;99130.69;130048;1093;22648;-63
2021/06/12 09:01:21;;;;;;;6.13;3.83;;;;;;;22.11;53.03;99123.17;130012;1092;23486;-64
2021/06/12 09:03:49;;;;;;;7.10;4.10;;;;;;;22.15;53.28;99122.16;129850;1093;22545;-64
2021/06/12 09:06:19;;;;;;;7.15;3.85;;;;;;;22.19;52.49;99114.77;130006;1092;22591;-64
2021/06/12 09:08:48;;;;;;;11.08;6.43;;;;;;;22.25;52.70;99108.97;129872;1093;22552;-63
2021/06/12 09:11:18;;;;;;;5.93;3.68;;;;;;;22.32;52.74;99117.55;129862;1093;22610;-63
2021/06/12 09:13:54;;;;;;;16.75;7.73;;;;;;;22.41;51.35;99115.47;130063;1093;22631;-64
2021/06/12 09:16:25;;;;;;;15.45;7.30;;;;;;;22.45;50.64;99119.18;130056;1093;23475;-63
2021/06/12 09:19:21;;;;;;;9.03;4.38;;;;;;;22.47;50.41;99100.22;130064;1093;23046;-64
2021/06/12 09:22:00;;;;;;;32.55;15.15;;;;;;;22.49;51.60;99109.01;129818;1093;22542;-64
2021/06/12 09:24:39;;;;;;;9.68;5.90;;;;;;;22.54;51.38;99105.98;130039;1092;22570;-64
2021/06/12 09:27:16;;;;;;;6.83;4.35;;;;;;;22.58;51.06;99109.69;130027;1093;22728;-64
2021/06/12 09:29:50;;;;;;;3.60;3.15;;;;;;;22.60;49.13;99101.02;130066;1093;22560;-65
2021/06/12 09:32:25;;;;;;;19.88;10.40;;;;;;;22.60;48.63;99103.80;130059;1092;22562;-64
2021/06/12 09:35:05;;;;;;;10.43;4.43;;;;;;;22.61;49.01;99106.23;129867;1092;22588;-65
2021/06/12 09:37:33;;;;;;;15.28;5.18;;;;;;;22.64;48.92;99099.17;129822;1092;22635;-65
2021/06/12 09:40:06;;;;;;;6.40;4.90;;;;;;;22.67;50.10;99099.27;129867;1093;22548;-65
2021/06/12 09:42:44;;;;;;;7.23;4.15;;;;;;;22.72;50.02;99099.03;130088;1093;23306;-64
2021/06/12 09:45:24;;;;;;;9.23;4.50;;;;;;;22.75;51.02;99095.56;129795;1093;22510;-63
2021/06/12 09:48:07;;;;;;;4.25;3.45;;;;;;;22.79;50.18;99081.83;129819;1093;22570;-64
2021/06/12 09:50:37;;;;;;;5.60;3.78;;;;;;;22.79;50.30;99090.97;130084;1092;22781;-65
2021/06/12 09:53:20;;;;;;;3.88;3.48;;;;;;;22.77;50.65;99075.81;130055;1093;22675;-65
2021/06/12 09:55:49;;;;;;;6.53;3.25;;;;;;;22.77;50.80;99073.03;130011;1093;22533;-65
2021/06/12 09:58:17;;;;;;;6.78;3.60;;;;;;;22.80;51.20;99073.12;130063;1093;22563;-65
2021/06/12 10:00:47;;;;;;;4.15;3.40;;;;;;;22.84;51.55;99071.27;130086;1093;23439;-65
2021/06/12 10:03:26;;;;;;;5.88;3.48;;;;;;;22.87;51.72;99069.77;130098;1093;22650;-64
2021/06/12 10:06:17;;;;;;;6.05;3.50;;;;;;;22.89;50.87;99075.78;130050;1093;23457;-65
2021/06/12 10:08:47;;;;;;;5.90;3.43;;;;;;;22.90;51.43;99069.88;129837;1092;23180;-65
2021/06/12 10:11:19;;;;;;;3.45;3.15;;;;;;;22.95;51.91;99068.80;130120;1093;22526;-65
2021/06/12 10:13:48;;;;;;;5.48;3.78;;;;;;;23.03;52.07;99067.88;129813;1093;22525;-64
2021/06/12 10:16:39;;;;;;;10.95;5.50;;;;;;;23.11;50.64;99068.88;129853;1093;22617;-64
2021/06/12 10:19:07;;;;;;;6.25;4.43;;;;;;;23.17;49.95;99062.73;129857;1093;23173;-64
2021/06/12 10:21:36;;;;;;;7.05;4.70;;;;;;;23.18;49.96;99061.58;129840;1093;22714;-65
2021/06/12 10:24:08;;;;;;;6.70;4.50;;;;;;;23.17;50.34;99065.52;129950;1093;22606;-64
2021/06/12 10:26:37;;;;;;;7.43;3.85;;;;;;;23.15;51.08;99062.27;129889;1093;22541;-65
2021/06/12 10:29:05;;;;;;;3.70;3.38;;;;;;;23.16;50.75;99061.12;130077;1092;22595;-64
2021/06/12 10:31:35;;;;;;;5.30;3.73;;;;;;;23.15;50.30;99050.34;130046;1093;22588;-63
2021/06/12 10:34:03;;;;;;;4.08;3.38;;;;;;;23.12;50.44;99043.52;129856;1093;22551;-64
2021/06/12 10:36:33;;;;;;;4.00;3.60;;;;;;;23.11;49.89;99046.64;130045;1093;22672;-66
2021/06/12 10:39:02;;;;;;;15.20;3.90;;;;;;;23.10;50.99;99047.81;129857;1092;22578;-64
2021/06/12 10:41:35;;;;;;;7.93;4.13;;;;;;;23.10;50.80;99045.84;129820;1092;22792;-64
2021/06/12 10:44:04;;;;;;;5.70;3.63;;;;;;;23.11;50.47;99041.09;129827;1092;23145;-65
2021/06/12 10:46:34;;;;;;;6.73;3.88;;;;;;;23.08;50.74;99037.07;130034;1093;23403;-64
2021/06/12 10:49:06;;;;;;;8.08;4.55;;;;;;;23.05;51.11;99029.43;130126;1092;22637;-65
2021/06/12 10:51:36;;;;;;;17.93;4.50;;;;;;;23.02;51.05;99034.88;130059;1093;22689;-64
2021/06/12 10:54:07;;;;;;;6.48;4.53;;;;;;;22.99;50.67;99027.23;129856;1093;22638;-65
2021/06/12 10:56:37;;;;;;;5.67;3.63;;;;;;;22.96;50.37;99030.72;127286;1092;22870;-63
2021/06/12 10:59:06;;;;;;;10.40;4.10;;;;;;;22.95;50.50;99029.09;125436;1092;25372;-65
2021/06/12 11:01:34;;;;;;;5.30;3.95;;;;;;;22.93;50.48;99020.33;130078;1092;24885;-64
2021/06/12 11:04:17;;;;;;;3.68;3.28;;;;;;;22.90;50.66;99024.62;130101;1093;22532;-65
2021/06/12 11:06:52;;;;;;;14.03;5.15;;;;;;;22.88;50.82;99036.08;130079;1093;22632;-64
2021/06/12 11:09:30;;;;;;;6.28;4.00;;;;;;;22.87;50.96;99031.68;130058;1093;24635;-65
2021/06/12 11:12:13;;;;;;;8.78;4.45;;;;;;;22.86;50.69;99018.14;129802;1093;22566;-65
2021/06/12 11:14:53;;;;;;;18.80;5.78;;;;;;;22.84;51.23;99015.70;129865;1093;22627;-65
2021/06/12 11:17:22;;;;;;;6.33;4.18;;;;;;;22.84;51.45;99014.90;129985;1093;22545;-65
2021/06/12 11:19:56;;;;;;;6.73;4.13;;;;;;;22.84;51.51;99012.93;129900;1093;22542;-65
2021/06/12 11:22:41;;;;;;;7.05;4.05;;;;;;;22.84;51.40;99010.16;129825;1092;22561;-65
2021/06/12 11:25:09;;;;;;;4.80;3.50;;;;;;;22.84;51.89;99009.34;129892;1093;23104;-63
2021/06/12 11:27:42;;;;;;;4.35;3.13;;;;;;;22.81;52.04;99013.63;130012;1093;24017;-65
2021/06/12 11:30:22;;;;;;;7.78;4.35;;;;;;;22.84;52.02;99021.27;129871;1092;22532;-65
2021/06/12 11:32:53;;;;;;;8.33;4.40;;;;;;;22.82;51.86;99037.47;129819;1092;22571;-66
2021/06/12 11:35:56;;;;;;;13.60;4.80;;;;;;;22.79;52.62;99038.20;129872;1092;22684;-65